Time;durP1;ratioP1;P1;durP2;ratioP2;P2;SDS_P1;SDS_P2;PMS_P1;PMS_P2;Temp;Humidity;BMP_temperature;BMP_pressure;BME280_temperature;BME280_humidity;BME280_pressure;Samples;Min_cycle;Max_cycle;Signal;HPM_P1;HPM_P2
2022/04/05 00:02:20;;;;;;;16.47;11.13;;;;;;;;;;5095502;28;20663;-60
2022/04/05 00:04:47;;;;;;;17.77;11.40;;;;;;;;;;5095324;28;20571;-60
2022/04/05 00:07:15;;;;;;;17.33;11.63;;;;;;;;;;5094546;28;20206;-60
2022/04/05 00:09:42;;;;;;;17.00;10.50;;;;;;;;;;5095341;28;20285;-60
2022/04/05 00:12:09;;;;;;;18.60;11.57;;;;;;;;;;5095215;28;20252;-61
2022/04/05 00:14:36;;;;;;;16.33;11.37;;;;;;;;;;5096005;28;20205;-60
2022/04/05 00:17:03;;;;;;;18.27;11.70;;;;;;;;;;5095374;28;20361;-60
2022/04/05 00:19:31;;;;;;;17.07;11.57;;;;;;;;;;5094935;28;20301;-60
2022/04/05 00:21:58;;;;;;;16.43;11.70;;;;;;;;;;5095261;28;20618;-60
2022/04/05 00:24:25;;;;;;;22.70;11.43;;;;;;;;;;5095243;28;20679;-61
2022/04/05 00:26:55;;;;;;;17.20;11.97;;;;;;;;;;5095328;28;20229;-60
2022/04/05 00:29:23;;;;;;;16.10;12.20;;;;;;;;;;5094135;28;20230;-60
2022/04/05 00:31:51;;;;;;;18.30;12.57;;;;;;;;;;5095410;28;20581;-60
2022/04/05 00:34:18;;;;;;;21.23;12.37;;;;;;;;;;5095236;28;20206;-60
2022/04/05 00:36:45;;;;;;;17.83;13.00;;;;;;;;;;5095119;28;20203;-61
2022/04/05 00:39:13;;;;;;;18.27;13.30;;;;;;;;;;5094834;28;20237;-61
2022/04/05 00:41:40;;;;;;;18.03;13.07;;;;;;;;;;5094704;28;20199;-60
2022/04/05 00:44:07;;;;;;;20.13;14.03;;;;;;;;;;5095108;28;20293;-60
2022/04/05 00:46:34;;;;;;;20.43;13.50;;;;;;;;;;5094897;28;20238;-60
2022/04/05 00:49:02;;;;;;;20.97;14.43;;;;;;;;;;5094980;28;20267;-60
2022/04/05 00:51:29;;;;;;;25.73;15.57;;;;;;;;;;5094960;28;20229;-60
2022/04/05 00:54:06;;;;;;;22.67;15.30;;;;;;;;;;5094998;28;20231;-61
2022/04/05 00:56:35;;;;;;;21.50;14.77;;;;;;;;;;5094827;28;20620;-60
2022/04/05 00:59:03;;;;;;;25.23;15.77;;;;;;;;;;5094067;28;20219;-60
2022/04/05 01:01:31;;;;;;;22.03;15.60;;;;;;;;;;5095331;28;20202;-60
2022/04/05 01:03:58;;;;;;;23.30;16.13;;;;;;;;;;5094584;28;20209;-60
2022/04/05 01:06:29;;;;;;;27.53;16.90;;;;;;;;;;5095743;28;20244;-60
2022/04/05 01:08:56;;;;;;;25.93;16.63;;;;;;;;;;5094570;28;20202;-60
2022/04/05 01:11:24;;;;;;;25.13;16.50;;;;;;;;;;5094650;28;20222;-60
2022/04/05 01:13:53;;;;;;;23.80;17.03;;;;;;;;;;5094931;28;20222;-60
2022/04/05 01:16:20;;;;;;;25.50;17.50;;;;;;;;;;5094726;28;20281;-61
2022/04/05 01:18:48;;;;;;;27.37;17.97;;;;;;;;;;5094340;28;20226;-61
2022/04/05 01:21:16;;;;;;;24.67;17.03;;;;;;;;;;5093700;28;20207;-60
2022/04/05 01:24:12;;;;;;;25.17;16.47;;;;;;;;;;5094532;28;20225;-60
2022/04/05 01:26:44;;;;;;;25.67;16.87;;;;;;;;;;5094655;28;20636;-60
2022/04/05 01:29:11;;;;;;;26.17;17.07;;;;;;;;;;5094848;28;20266;-60
2022/04/05 01:31:49;;;;;;;26.17;16.93;;;;;;;;;;5097367;28;20214;-60
2022/04/05 01:34:22;;;;;;;26.47;17.67;;;;;;;;;;5098941;28;20221;-60
2022/04/05 01:36:55;;;;;;;25.13;17.83;;;;;;;;;;5098499;28;20588;-60
2022/04/05 01:39:25;;;;;;;27.90;18.30;;;;;;;;;;5098171;28;20226;-60
2022/04/05 01:41:57;;;;;;;27.30;16.67;;;;;;;;;;5098434;28;20230;-60
2022/04/05 01:44:26;;;;;;;28.10;18.20;;;;;;;;;;5098175;28;20641;-60
2022/04/05 01:46:53;;;;;;;26.57;18.37;;;;;;;;;;5098513;28;20234;-60
2022/04/05 01:49:21;;;;;;;28.00;18.87;;;;;;;;;;5098144;28;20199;-60
2022/04/05 01:51:49;;;;;;;29.70;19.23;;;;;;;;;;5098132;28;20249;-60
2022/04/05 01:54:17;;;;;;;27.83;18.33;;;;;;;;;;5098512;28;20574;-60
2022/04/05 01:56:49;;;;;;;28.23;18.57;;;;;;;;;;5097871;28;20230;-60
2022/04/05 01:59:19;;;;;;;27.93;19.53;;;;;;;;;;5098173;28;20222;-60
2022/04/05 02:01:47;;;;;;;26.93;19.53;;;;;;;;;;5097690;28;20226;-61
2022/04/05 02:04:15;;;;;;;30.30;19.43;;;;;;;;;;5097890;28;20203;-60
2022/04/05 02:06:43;;;;;;;34.00;20.37;;;;;;;;;;5098000;28;20291;-60
2022/04/05 02:09:14;;;;;;;31.10;20.33;;;;;;;;;;5098104;28;20214;-60
2022/04/05 02:11:43;;;;;;;30.17;20.03;;;;;;;;;;5097022;28;20259;-61
2022/04/05 02:14:23;;;;;;;29.70;19.80;;;;;;;;;;5097350;28;20211;-60
2022/04/05 02:16:51;;;;;;;32.50;21.70;;;;;;;;;;5097024;28;20202;-60
2022/04/05 02:19:20;;;;;;;31.67;21.93;;;;;;;;;;5097869;28;20230;-60
2022/04/05 02:21:49;;;;;;;30.03;21.33;;;;;;;;;;5096581;28;20241;-60
2022/04/05 02:24:16;;;;;;;31.73;21.53;;;;;;;;;;5096660;28;20621;-60
2022/04/05 02:26:44;;;;;;;30.53;21.57;;;;;;;;;;5096700;28;20209;-60
2022/04/05 02:29:11;;;;;;;33.33;22.57;;;;;;;;;;5096312;28;20261;-59
2022/04/05 02:31:43;;;;;;;34.50;22.20;;;;;;;;;;5096960;28;20267;-60
2022/04/05 02:34:11;;;;;;;36.80;24.33;;;;;;;;;;5096682;28;20202;-60
2022/04/05 02:36:44;;;;;;;35.60;23.20;;;;;;;;;;5111140;28;20237;-60
2022/04/05 02:39:14;;;;;;;36.07;23.37;;;;;;;;;;5115667;28;20297;-60
2022/04/05 02:41:44;;;;;;;33.07;22.93;;;;;;;;;;5114352;28;20560;-60
2022/04/05 02:44:12;;;;;;;38.40;24.37;;;;;;;;;;5116103;28;20229;-60
2022/04/05 02:46:40;;;;;;;35.67;23.47;;;;;;;;;;5117178;28;20620;-60
2022/04/05 02:49:13;;;;;;;37.67;24.77;;;;;;;;;;5116661;28;20228;-60
2022/04/05 02:51:42;;;;;;;37.63;24.03;;;;;;;;;;5116844;28;20248;-60
2022/04/05 02:54:15;;;;;;;37.10;24.90;;;;;;;;;;5116614;28;20281;-60
2022/04/05 02:56:43;;;;;;;36.73;25.40;;;;;;;;;;5116490;28;20222;-60
2022/04/05 02:59:13;;;;;;;39.87;25.83;;;;;;;;;;5116858;28;20222;-60
2022/04/05 03:01:42;;;;;;;38.37;25.97;;;;;;;;;;5116186;28;20640;-60
2022/04/05 03:04:13;;;;;;;37.50;25.53;;;;;;;;;;5116705;28;20233;-60
2022/04/05 03:06:41;;;;;;;39.23;25.70;;;;;;;;;;5115999;28;20575;-60
2022/04/05 03:09:12;;;;;;;38.63;25.30;;;;;;;;;;5117252;28;20251;-60
2022/04/05 03:11:40;;;;;;;37.20;25.03;;;;;;;;;;5116211;28;20232;-60
2022/04/05 03:14:08;;;;;;;41.23;26.50;;;;;;;;;;5116220;28;20293;-60
2022/04/05 03:16:37;;;;;;;41.93;26.53;;;;;;;;;;5117328;28;20292;-60
2022/04/05 03:19:11;;;;;;;43.43;24.90;;;;;;;;;;5115984;28;20591;-60
2022/04/05 03:21:38;;;;;;;40.13;25.97;;;;;;;;;;5116831;28;20496;-60
2022/04/05 03:24:06;;;;;;;44.63;27.77;;;;;;;;;;5116986;28;20233;-60
2022/04/05 03:26:33;;;;;;;40.87;27.37;;;;;;;;;;5115857;28;20231;-60
2022/04/05 03:29:00;;;;;;;41.17;28.00;;;;;;;;;;5116088;28;20312;-60
2022/04/05 03:31:27;;;;;;;40.77;25.00;;;;;;;;;;5116437;28;20206;-60
2022/04/05 03:33:56;;;;;;;40.70;26.87;;;;;;;;;;5115443;28;20221;-60
2022/04/05 03:36:24;;;;;;;40.60;27.13;;;;;;;;;;5115436;28;20225;-60
2022/04/05 03:38:51;;;;;;;38.90;27.53;;;;;;;;;;5114971;28;20222;-61
2022/04/05 03:41:18;;;;;;;40.77;26.70;;;;;;;;;;5115937;28;20655;-60
2022/04/05 03:43:46;;;;;;;41.30;26.97;;;;;;;;;;5115959;28;20206;-63
2022/04/05 03:46:19;;;;;;;38.90;25.83;;;;;;;;;;5115001;28;20224;-62
2022/04/05 03:48:47;;;;;;;49.40;33.40;;;;;;;;;;5115155;28;20240;-60
2022/04/05 03:51:17;;;;;;;51.20;31.07;;;;;;;;;;5114723;28;20217;-60
2022/04/05 03:53:54;;;;;;;178.30;85.63;;;;;;;;;;5114863;28;20232;-60
2022/04/05 03:56:23;;;;;;;245.83;100.43;;;;;;;;;;5115015;28;20210;-60
2022/04/05 03:58:54;;;;;;;184.10;92.60;;;;;;;;;;5114736;28;20221;-60
2022/04/05 04:01:22;;;;;;;151.57;84.17;;;;;;;;;;5114655;28;20705;-60
2022/04/05 04:03:50;;;;;;;75.60;54.57;;;;;;;;;;5110904;28;20198;-62
2022/04/05 04:06:17;;;;;;;42.17;28.70;;;;;;;;;;5101542;27;20683;-62
2022/04/05 04:08:45;;;;;;;54.33;34.13;;;;;;;;;;5104669;28;20218;-61
2022/04/05 04:11:14;;;;;;;46.20;32.53;;;;;;;;;;5105769;28;20300;-60
2022/04/05 04:13:43;;;;;;;45.77;30.87;;;;;;;;;;5107114;28;20257;-60
2022/04/05 04:16:12;;;;;;;49.30;33.47;;;;;;;;;;5109297;28;20253;-60
2022/04/05 04:18:42;;;;;;;55.57;40.93;;;;;;;;;;5109805;28;20226;-60
2022/04/05 04:21:11;;;;;;;61.67;45.13;;;;;;;;;;5092973;28;20704;-60
2022/04/05 04:23:39;;;;;;;44.10;30.13;;;;;;;;;;5093308;28;20276;-60
2022/04/05 04:26:08;;;;;;;43.07;29.20;;;;;;;;;;5092592;28;20238;-61
2022/04/05 04:28:35;;;;;;;43.00;27.90;;;;;;;;;;5095576;28;20263;-48
2022/04/05 04:31:02;;;;;;;41.33;28.60;;;;;;;;;;5114229;27;20320;-48
2022/04/05 04:33:30;;;;;;;35.47;24.87;;;;;;;;;;5114375;28;20601;-47
2022/04/05 04:35:58;;;;;;;36.93;27.57;;;;;;;;;;5113500;27;20265;-51
2022/04/05 04:38:25;;;;;;;39.07;26.30;;;;;;;;;;5113716;28;20321;-51
2022/04/05 04:40:52;;;;;;;37.90;29.10;;;;;;;;;;5114167;27;20228;-52
2022/04/05 04:43:20;;;;;;;41.80;26.80;;;;;;;;;;5114185;28;20229;-48
2022/04/05 04:45:47;;;;;;;38.33;26.93;;;;;;;;;;5114086;28;20234;-48
2022/04/05 04:48:14;;;;;;;37.17;27.47;;;;;;;;;;5114185;28;20226;-49
2022/04/05 04:50:42;;;;;;;39.80;27.47;;;;;;;;;;5109896;28;20267;-47
2022/04/05 04:53:09;;;;;;;42.10;27.90;;;;;;;;;;5093194;28;20607;-46
2022/04/05 04:55:36;;;;;;;37.10;27.20;;;;;;;;;;5092156;28;20284;-47
2022/04/05 04:58:23;;;;;;;38.30;27.40;;;;;;;;;;5093608;28;20668;-49
2022/04/05 05:00:50;;;;;;;37.67;28.20;;;;;;;;;;5093679;28;20720;-46
2022/04/05 05:03:18;;;;;;;35.53;28.03;;;;;;;;;;5093648;28;20234;-48
2022/04/05 05:05:47;;;;;;;36.83;25.97;;;;;;;;;;5094657;28;20253;-47
2022/04/05 05:08:14;;;;;;;38.83;27.80;;;;;;;;;;5102411;28;20591;-51
2022/04/05 05:10:41;;;;;;;35.07;25.90;;;;;;;;;;5117019;28;22407;-51
2022/04/05 05:13:08;;;;;;;37.87;27.23;;;;;;;;;;5117227;28;20242;-47
2022/04/05 05:15:35;;;;;;;35.90;27.10;;;;;;;;;;5114394;27;20214;-49
2022/04/05 05:18:02;;;;;;;36.23;27.63;;;;;;;;;;5116875;28;20217;-50
2022/04/05 05:20:30;;;;;;;38.27;27.60;;;;;;;;;;5113669;28;20298;-50
2022/04/05 05:22:57;;;;;;;37.13;29.93;;;;;;;;;;5117200;28;20198;-51
2022/04/05 05:25:24;;;;;;;33.70;26.47;;;;;;;;;;5117837;28;20208;-49
2022/04/05 05:27:52;;;;;;;40.83;27.43;;;;;;;;;;5117354;28;20240;-50
2022/04/05 05:30:22;;;;;;;33.40;24.73;;;;;;;;;;5117214;28;20218;-50
2022/04/05 05:32:50;;;;;;;48.87;33.13;;;;;;;;;;5118163;28;20202;-51
2022/04/05 05:35:20;;;;;;;34.60;25.67;;;;;;;;;;5118592;28;20202;-48
2022/04/05 05:37:48;;;;;;;41.93;28.57;;;;;;;;;;5118649;28;20202;-51
2022/04/05 05:40:16;;;;;;;34.33;25.90;;;;;;;;;;5118976;28;20312;-48
2022/04/05 05:42:53;;;;;;;34.67;26.70;;;;;;;;;;5119193;28;20256;-48
2022/04/05 05:45:21;;;;;;;35.30;28.10;;;;;;;;;;5118763;28;20185;-49
2022/04/05 05:47:49;;;;;;;35.23;27.30;;;;;;;;;;5119334;28;20540;-49
2022/04/05 05:50:16;;;;;;;37.33;27.43;;;;;;;;;;5118527;28;20535;-49
2022/04/05 05:52:45;;;;;;;38.57;27.40;;;;;;;;;;5118657;28;20236;-49
2022/04/05 05:55:14;;;;;;;37.80;26.87;;;;;;;;;;5118402;28;20578;-48
2022/04/05 05:57:41;;;;;;;41.10;29.30;;;;;;;;;;5118439;28;20212;-48
2022/04/05 06:00:17;;;;;;;35.17;25.20;;;;;;;;;;5118063;28;20226;-52
2022/04/05 06:02:45;;;;;;;29.53;23.87;;;;;;;;;;5118323;28;20484;-49
2022/04/05 06:05:12;;;;;;;35.43;26.60;;;;;;;;;;5118089;28;20292;-48
2022/04/05 06:07:41;;;;;;;40.87;27.70;;;;;;;;;;5118539;28;20205;-48
2022/04/05 06:10:10;;;;;;;32.93;26.00;;;;;;;;;;5118218;28;20221;-50
2022/04/05 06:12:42;;;;;;;36.53;26.10;;;;;;;;;;5118456;28;20202;-51
2022/04/05 06:15:12;;;;;;;40.43;28.37;;;;;;;;;;5118610;28;20244;-52
2022/04/05 06:17:41;;;;;;;35.83;25.97;;;;;;;;;;5117055;28;20198;-53
2022/04/05 06:20:09;;;;;;;36.20;26.47;;;;;;;;;;5117883;28;20222;-47
2022/04/05 06:22:47;;;;;;;36.03;27.40;;;;;;;;;;5117975;28;20233;-48
2022/04/05 06:25:22;;;;;;;43.40;31.03;;;;;;;;;;5117726;28;20198;-49
2022/04/05 06:27:49;;;;;;;36.83;26.50;;;;;;;;;;5117749;28;20232;-47
2022/04/05 06:30:17;;;;;;;31.87;25.83;;;;;;;;;;5117633;28;20317;-50
2022/04/05 06:32:46;;;;;;;38.47;27.60;;;;;;;;;;5117938;28;20271;-48
2022/04/05 06:35:14;;;;;;;38.10;25.53;;;;;;;;;;5117597;28;20222;-48
2022/04/05 06:37:44;;;;;;;35.47;25.60;;;;;;;;;;5117426;28;20198;-49
2022/04/05 06:40:14;;;;;;;33.87;24.73;;;;;;;;;;5117555;28;20222;-48
2022/04/05 06:42:43;;;;;;;30.67;23.53;;;;;;;;;;5117508;28;20226;-50
2022/04/05 06:45:17;;;;;;;33.03;24.80;;;;;;;;;;5117621;28;20206;-48
2022/04/05 06:47:45;;;;;;;31.83;24.37;;;;;;;;;;5117530;28;20571;-48
2022/04/05 06:50:14;;;;;;;34.13;26.27;;;;;;;;;;5117653;28;20201;-49
2022/04/05 06:52:41;;;;;;;33.83;24.77;;;;;;;;;;5117468;28;20198;-48
2022/04/05 06:55:10;;;;;;;32.00;24.20;;;;;;;;;;5117135;28;20230;-48
2022/04/05 06:57:37;;;;;;;30.47;21.93;;;;;;;;;;5117302;28;20206;-48
2022/04/05 07:00:06;;;;;;;29.67;22.70;;;;;;;;;;5117100;28;20671;-49
2022/04/05 07:02:34;;;;;;;27.23;20.87;;;;;;;;;;5117382;27;20225;-49
2022/04/05 07:05:01;;;;;;;26.87;20.63;;;;;;;;;;5116896;28;20225;-48
2022/04/05 07:07:28;;;;;;;25.07;20.00;;;;;;;;;;5117208;28;20216;-48
2022/04/05 07:09:56;;;;;;;26.53;19.97;;;;;;;;;;5117036;27;20232;-48
2022/04/05 07:12:25;;;;;;;22.90;18.80;;;;;;;;;;5117062;28;20202;-55
2022/04/05 07:14:52;;;;;;;31.63;20.73;;;;;;;;;;5116911;28;20198;-49
2022/04/05 07:17:19;;;;;;;24.03;19.47;;;;;;;;;;5116719;27;20240;-50
2022/04/05 07:19:46;;;;;;;26.40;19.57;;;;;;;;;;5116596;28;20217;-49
2022/04/05 07:22:13;;;;;;;23.47;19.30;;;;;;;;;;5116883;28;20221;-49
2022/04/05 07:24:41;;;;;;;26.53;20.37;;;;;;;;;;5116850;28;20236;-48
2022/04/05 07:27:08;;;;;;;24.27;19.37;;;;;;;;;;5116587;28;20525;-48
2022/04/05 07:29:35;;;;;;;25.17;18.60;;;;;;;;;;5114259;28;20321;-49
2022/04/05 07:32:02;;;;;;;27.20;22.40;;;;;;;;;;5116385;28;20287;-51
2022/04/05 07:34:29;;;;;;;28.50;21.63;;;;;;;;;;5116699;28;20577;-49
2022/04/05 07:36:56;;;;;;;25.53;19.67;;;;;;;;;;5116192;28;20624;-49
2022/04/05 07:39:24;;;;;;;25.83;19.07;;;;;;;;;;5114987;28;20638;-48
2022/04/05 07:41:52;;;;;;;29.53;21.23;;;;;;;;;;5116486;28;20198;-48
2022/04/05 07:44:19;;;;;;;26.07;19.97;;;;;;;;;;5117022;28;20210;-49
2022/04/05 07:46:46;;;;;;;30.27;20.23;;;;;;;;;;5103189;28;20230;-49
2022/04/05 07:49:13;;;;;;;31.43;20.47;;;;;;;;;;5095816;28;20211;-48
2022/04/05 07:51:41;;;;;;;25.17;19.87;;;;;;;;;;5095913;28;20211;-47
2022/04/05 07:54:08;;;;;;;24.87;19.83;;;;;;;;;;5095788;28;20246;-49
2022/04/05 07:56:35;;;;;;;29.03;21.30;;;;;;;;;;5095669;28;20218;-48
2022/04/05 07:59:05;;;;;;;24.07;19.37;;;;;;;;;;5095681;28;20309;-49
2022/04/05 08:01:32;;;;;;;28.07;19.97;;;;;;;;;;5095854;28;20599;-48
2022/04/05 08:03:59;;;;;;;20.83;17.30;;;;;;;;;;5095716;28;20217;-49
2022/04/05 08:06:31;;;;;;;22.30;16.87;;;;;;;;;;5095298;28;20206;-48
2022/04/05 08:08:59;;;;;;;25.20;16.83;;;;;;;;;;5095567;28;20211;-51
2022/04/05 08:11:27;;;;;;;23.27;16.70;;;;;;;;;;5095502;28;20267;-51
2022/04/05 08:13:56;;;;;;;40.60;20.90;;;;;;;;;;5095172;28;20203;-50
2022/04/05 08:16:28;;;;;;;24.10;19.33;;;;;;;;;;5095508;28;20267;-49
2022/04/05 08:18:55;;;;;;;24.97;18.10;;;;;;;;;;5095321;28;20637;-48
2022/04/05 08:21:22;;;;;;;21.47;15.43;;;;;;;;;;5095068;28;20694;-49
2022/04/05 08:23:52;;;;;;;21.33;15.53;;;;;;;;;;5095113;28;20202;-48
2022/04/05 08:26:19;;;;;;;27.43;17.00;;;;;;;;;;5095685;28;20241;-50
2022/04/05 08:28:55;;;;;;;18.47;14.27;;;;;;;;;;5106515;28;20289;-48
2022/04/05 08:31:23;;;;;;;21.87;16.03;;;;;;;;;;5115390;28;20566;-49
2022/04/05 08:33:52;;;;;;;28.50;18.10;;;;;;;;;;5098453;28;20202;-48
2022/04/05 08:36:19;;;;;;;34.10;19.25;;;;;;;;;;5095456;28;20561;-48
2022/04/05 08:38:47;;;;;;;19.53;15.43;;;;;;;;;;5094849;28;20558;-52
2022/04/05 08:41:17;;;;;;;23.53;15.40;;;;;;;;;;5094385;28;20206;-49
2022/04/05 08:43:44;;;;;;;20.50;14.50;;;;;;;;;;5095393;28;20243;-49
2022/04/05 08:46:12;;;;;;;37.47;22.23;;;;;;;;;;5095276;28;20230;-48
2022/04/05 08:48:39;;;;;;;24.60;16.90;;;;;;;;;;5094192;28;20213;-51
2022/04/05 08:51:06;;;;;;;31.40;20.97;;;;;;;;;;5094958;28;20233;-48
2022/04/05 08:53:34;;;;;;;32.60;20.57;;;;;;;;;;5095518;28;20234;-48
2022/04/05 08:56:02;;;;;;;26.03;17.10;;;;;;;;;;5094865;28;20655;-51
2022/04/05 08:58:29;;;;;;;20.17;16.77;;;;;;;;;;5094711;28;20202;-53
2022/04/05 09:00:56;;;;;;;27.20;18.00;;;;;;;;;;5094788;28;20250;-48
2022/04/05 09:03:24;;;;;;;21.67;16.43;;;;;;;;;;5094877;28;20203;-50
2022/04/05 09:05:51;;;;;;;15.93;13.43;;;;;;;;;;5095089;28;20209;-50
2022/04/05 09:08:24;;;;;;;24.37;17.53;;;;;;;;;;5095047;28;20233;-51
2022/04/05 09:10:52;;;;;;;27.10;18.07;;;;;;;;;;5094719;28;20255;-48
2022/04/05 09:13:25;;;;;;;25.20;16.00;;;;;;;;;;5094803;28;20206;-48
2022/04/05 09:15:56;;;;;;;32.27;17.63;;;;;;;;;;5094544;28;20210;-49
2022/04/05 09:18:45;;;;;;;64.53;31.93;;;;;;;;;;5095068;28;20223;-51
2022/04/05 09:21:14;;;;;;;20.10;16.13;;;;;;;;;;5094408;28;20210;-50
2022/04/05 09:23:43;;;;;;;19.93;14.30;;;;;;;;;;5094689;28;20234;-50
2022/04/05 09:26:13;;;;;;;26.40;16.63;;;;;;;;;;5094456;28;20224;-51
2022/04/05 09:28:45;;;;;;;25.70;17.73;;;;;;;;;;5096982;28;20645;-49
2022/04/05 09:31:14;;;;;;;24.60;14.57;;;;;;;;;;5115617;28;20190;-49
2022/04/05 09:34:04;;;;;;;19.50;14.67;;;;;;;;;;5114873;28;20256;-49
2022/04/05 09:36:42;;;;;;;16.27;13.97;;;;;;;;;;5114831;28;20566;-51
2022/04/05 09:39:25;;;;;;;18.07;12.87;;;;;;;;;;5114910;28;20221;-49
2022/04/05 09:42:01;;;;;;;20.43;16.30;;;;;;;;;;5114681;28;20187;-52
2022/04/05 09:44:33;;;;;;;24.63;15.07;;;;;;;;;;5114872;28;20251;-50
2022/04/05 09:47:16;;;;;;;24.33;14.67;;;;;;;;;;5113711;28;20572;-49
2022/04/05 09:49:45;;;;;;;16.23;11.83;;;;;;;;;;5115164;28;20243;-49
2022/04/05 09:52:30;;;;;;;16.83;12.45;;;;;;;;;;5116722;28;20271;-52
2022/04/05 09:55:13;;;;;;;17.60;13.23;;;;;;;;;;5118318;28;20202;-53
2022/04/05 09:57:41;;;;;;;16.60;11.70;;;;;;;;;;5118988;28;20209;-48
2022/04/05 10:00:15;;;;;;;15.10;10.83;;;;;;;;;;5118422;28;20226;-50
2022/04/05 10:03:05;;;;;;;27.73;18.63;;;;;;;;;;5118155;28;20202;-49
2022/04/05 10:05:33;;;;;;;15.50;10.40;;;;;;;;;;5102046;28;20562;-50
2022/04/05 10:08:02;;;;;;;15.53;10.60;;;;;;;;;;5097930;28;20199;-49
2022/04/05 10:10:29;;;;;;;14.53;10.13;;;;;;;;;;5098047;28;20198;-49
2022/04/05 10:12:56;;;;;;;11.03;8.87;;;;;;;;;;5097660;28;20249;-50
2022/04/05 10:15:24;;;;;;;26.07;12.23;;;;;;;;;;5097497;28;20234;-48
2022/04/05 10:17:57;;;;;;;16.77;10.07;;;;;;;;;;5097536;28;20198;-52
2022/04/05 10:20:25;;;;;;;18.63;11.73;;;;;;;;;;5097332;28;20657;-49
2022/04/05 10:22:56;;;;;;;16.57;13.47;;;;;;;;;;5096777;28;20294;-54
2022/04/05 10:25:24;;;;;;;14.03;12.03;;;;;;;;;;5097342;28;20215;-55
2022/04/05 10:27:52;;;;;;;19.07;12.43;;;;;;;;;;5097978;28;20255;-52
2022/04/05 10:30:24;;;;;;;14.73;11.23;;;;;;;;;;5098044;28;20311;-52
2022/04/05 10:32:55;;;;;;;13.63;11.20;;;;;;;;;;5097495;28;20595;-49
2022/04/05 10:35:24;;;;;;;16.93;12.43;;;;;;;;;;5097131;28;20621;-49
2022/04/05 10:38:10;;;;;;;18.17;12.97;;;;;;;;;;5097744;28;20519;-48
2022/04/05 10:40:37;;;;;;;18.23;13.33;;;;;;;;;;5097075;28;20690;-49
2022/04/05 10:43:18;;;;;;;35.27;17.70;;;;;;;;;;5097213;28;20252;-49
2022/04/05 10:45:46;;;;;;;22.97;16.67;;;;;;;;;;5096994;28;20629;-49
2022/04/05 10:48:18;;;;;;;34.57;17.30;;;;;;;;;;5097641;28;20203;-48
2022/04/05 10:51:00;;;;;;;35.30;17.43;;;;;;;;;;5097291;28;20656;-49
2022/04/05 10:53:33;;;;;;;21.93;14.00;;;;;;;;;;5096998;28;20199;-56
2022/04/05 10:56:03;;;;;;;25.27;15.10;;;;;;;;;;5097049;28;20206;-49
2022/04/05 10:58:35;;;;;;;26.37;15.27;;;;;;;;;;5096812;28;20222;-50
2022/04/05 11:01:43;;;;;;;23.30;15.10;;;;;;;;;;5096748;28;20261;-49
2022/04/05 11:04:12;;;;;;;24.97;15.17;;;;;;;;;;5093099;28;20290;-49
2022/04/05 11:06:58;;;;;;;22.03;16.67;;;;;;;;;;5096729;28;20223;-50
2022/04/05 11:09:27;;;;;;;29.63;16.23;;;;;;;;;;5096674;28;20264;-50
2022/04/05 11:11:55;;;;;;;24.77;15.30;;;;;;;;;;5096561;28;20731;-50
2022/04/05 11:14:41;;;;;;;22.37;14.47;;;;;;;;;;5096510;28;20286;-51
2022/04/05 11:17:14;;;;;;;21.83;13.37;;;;;;;;;;5096394;28;20233;-49
2022/04/05 11:19:43;;;;;;;14.63;11.73;;;;;;;;;;5096891;28;20213;-48
2022/04/05 11:22:19;;;;;;;14.73;11.40;;;;;;;;;;5095696;28;20225;-49
2022/04/05 11:24:54;;;;;;;13.50;10.43;;;;;;;;;;5096409;27;20194;-50
2022/04/05 11:27:33;;;;;;;11.47;10.37;;;;;;;;;;5115852;27;20253;-51
2022/04/05 11:30:28;;;;;;;16.83;13.13;;;;;;;;;;5115568;27;20244;-48
2022/04/05 11:33:21;;;;;;;12.60;9.87;;;;;;;;;;5115701;28;20257;-48
2022/04/05 11:35:50;;;;;;;22.43;12.67;;;;;;;;;;5115346;27;20684;-48
2022/04/05 11:38:17;;;;;;;18.37;11.43;;;;;;;;;;5115637;28;20584;-51
2022/04/05 11:40:54;;;;;;;16.13;9.80;;;;;;;;;;5114971;27;20743;-48
2022/04/05 11:43:30;;;;;;;16.63;10.33;;;;;;;;;;5115613;28;20664;-52
2022/04/05 11:46:06;;;;;;;23.47;12.10;;;;;;;;;;5115346;27;20225;-53
2022/04/05 11:48:34;;;;;;;41.30;23.07;;;;;;;;;;5115176;28;20228;-48
2022/04/05 11:51:07;;;;;;;16.17;11.73;;;;;;;;;;5109958;28;20530;-54
2022/04/05 11:53:35;;;;;;;17.73;11.23;;;;;;;;;;5114610;28;20272;-54
2022/04/05 11:56:23;;;;;;;14.07;10.00;;;;;;;;;;5114565;27;20222;-56
2022/04/05 11:58:56;;;;;;;11.30;8.87;;;;;;;;;;5114976;28;20234;-55
2022/04/05 12:01:32;;;;;;;12.67;9.30;;;;;;;;;;5114918;27;20221;-55
2022/04/05 12:04:04;;;;;;;17.57;10.20;;;;;;;;;;5115091;28;20253;-56
2022/04/05 12:06:39;;;;;;;22.67;11.93;;;;;;;;;;5114642;27;20225;-55
2022/04/05 12:09:09;;;;;;;13.68;10.60;;;;;;;;;;5114571;28;20260;-55
2022/04/05 12:11:38;;;;;;;11.60;9.27;;;;;;;;;;5114607;27;20221;-55
2022/04/05 12:14:09;;;;;;;15.80;9.18;;;;;;;;;;5114628;28;20245;-55
2022/04/05 12:17:00;;;;;;;21.50;12.23;;;;;;;;;;5113931;27;20651;-56
2022/04/05 12:19:35;;;;;;;18.88;11.02;;;;;;;;;;5114981;28;20278;-55
2022/04/05 12:22:05;;;;;;;28.73;13.00;;;;;;;;;;5115332;28;20237;-56
2022/04/05 12:24:40;;;;;;;21.80;11.90;;;;;;;;;;5115388;28;20690;-56
2022/04/05 12:27:07;;;;;;;24.25;13.30;;;;;;;;;;5115677;28;20201;-56
2022/04/05 12:29:39;;;;;;;31.07;14.47;;;;;;;;;;5115431;28;20225;-56
2022/04/05 12:32:09;;;;;;;26.77;16.37;;;;;;;;;;5115287;28;20225;-56
2022/04/05 12:34:37;;;;;;;9.77;7.93;;;;;;;;;;5115358;28;20284;-55
2022/04/05 12:37:07;;;;;;;30.07;12.70;;;;;;;;;;5115521;28;20289;-56
2022/04/05 12:39:41;;;;;;;21.13;11.67;;;;;;;;;;5115065;28;20194;-56
2022/04/05 12:42:09;;;;;;;10.98;8.25;;;;;;;;;;5115524;28;20607;-55
2022/04/05 12:44:38;;;;;;;25.77;13.37;;;;;;;;;;5115811;28;20526;-55
2022/04/05 12:47:06;;;;;;;16.90;10.43;;;;;;;;;;5114590;28;20189;-56
2022/04/05 12:49:39;;;;;;;18.90;10.93;;;;;;;;;;5115046;28;20233;-55
2022/04/05 12:52:17;;;;;;;12.15;10.88;;;;;;;;;;5115242;28;20197;-55
2022/04/05 12:55:08;;;;;;;11.77;8.23;;;;;;;;;;5115432;28;20229;-55
2022/04/05 12:57:37;;;;;;;8.00;6.27;;;;;;;;;;5101890;28;20186;-55
2022/04/05 13:00:15;;;;;;;11.33;7.57;;;;;;;;;;5112542;28;20273;-56
2022/04/05 13:02:45;;;;;;;10.53;7.00;;;;;;;;;;5106388;28;20286;-55
2022/04/05 13:08:10;;;;;;;12.90;7.77;;;;;;;;;;5107395;27;20230;-51
2022/04/05 13:10:46;;;;;;;11.82;7.97;;;;;;;;;;5109723;28;20265;-55
2022/04/05 13:13:24;;;;;;;30.73;16.07;;;;;;;;;;5105711;28;20680;-56
2022/04/05 13:16:01;;;;;;;17.97;10.77;;;;;;;;;;5112412;28;20254;-54
2022/04/05 13:18:46;;;;;;;14.00;8.10;;;;;;;;;;5113903;27;20268;-55
2022/04/05 13:21:17;;;;;;;13.93;7.60;;;;;;;;;;5103026;28;20229;-54
2022/04/05 13:24:02;;;;;;;8.93;5.90;;;;;;;;;;5110385;27;20221;-55
2022/04/05 13:26:29;;;;;;;10.07;5.63;;;;;;;;;;5107056;28;20259;-58
2022/04/05 13:29:10;;;;;;;19.80;7.87;;;;;;;;;;5115536;27;20226;-57
2022/04/05 13:31:46;;;;;;;22.80;7.30;;;;;;;;;;5114582;28;20229;-58
2022/04/05 13:34:14;;;;;;;6.93;4.47;;;;;;;;;;5118063;27;20253;-58
2022/04/05 13:36:42;;;;;;;13.70;7.13;;;;;;;;;;5117635;28;20224;-55
2022/04/05 13:39:10;;;;;;;17.27;6.33;;;;;;;;;;5117968;27;20221;-55
2022/04/05 13:41:37;;;;;;;13.93;5.10;;;;;;;;;;5117583;28;20699;-56
2022/04/05 13:44:06;;;;;;;15.27;6.05;;;;;;;;;;5105179;27;20711;-54
2022/04/05 13:46:35;;;;;;;15.93;6.33;;;;;;;;;;5097225;28;20231;-55
2022/04/05 13:49:06;;;;;;;21.50;7.67;;;;;;;;;;5096435;28;20557;-54
2022/04/05 13:51:37;;;;;;;15.47;6.57;;;;;;;;;;5097498;28;20222;-56
2022/04/05 13:54:21;;;;;;;61.60;25.03;;;;;;;;;;5097281;28;20317;-56
2022/04/05 13:56:48;;;;;;;6.73;5.30;;;;;;;;;;5096476;28;20314;-53
2022/04/05 13:59:15;;;;;;;7.53;5.20;;;;;;;;;;5096898;28;20250;-52
2022/04/05 14:01:47;;;;;;;8.13;4.70;;;;;;;;;;5097130;28;20628;-57
2022/04/05 14:04:14;;;;;;;13.90;5.63;;;;;;;;;;5097047;28;20287;-57
2022/04/05 14:06:41;;;;;;;12.50;5.77;;;;;;;;;;5097102;28;20218;-50
2022/04/05 14:09:09;;;;;;;14.07;5.15;;;;;;;;;;5096936;28;20269;-50
2022/04/05 14:11:36;;;;;;;14.65;6.75;;;;;;;;;;5096823;28;20302;-55
2022/04/05 14:14:04;;;;;;;27.67;6.30;;;;;;;;;;5110187;27;20226;-56
2022/04/05 14:16:32;;;;;;;27.90;7.90;;;;;;;;;;5116506;28;20229;-56
2022/04/05 14:18:59;;;;;;;19.15;9.25;;;;;;;;;;5116734;27;20660;-59
2022/04/05 14:21:32;;;;;;;11.00;5.13;;;;;;;;;;5117248;28;20287;-56
2022/04/05 14:24:00;;;;;;;20.97;8.60;;;;;;;;;;5116543;27;20618;-56
2022/04/05 14:26:27;;;;;;;16.13;6.60;;;;;;;;;;5117096;28;20218;-57
2022/04/05 14:28:57;;;;;;;10.27;4.90;;;;;;;;;;5116548;27;20241;-56
2022/04/05 14:31:25;;;;;;;17.63;7.03;;;;;;;;;;5117139;28;20244;-56
2022/04/05 14:33:52;;;;;;;17.50;6.43;;;;;;;;;;5115557;27;20585;-56
2022/04/05 14:36:19;;;;;;;13.95;6.60;;;;;;;;;;5117118;28;20234;-57
2022/04/05 14:38:47;;;;;;;14.27;10.48;;;;;;;;;;5115941;28;20246;-56
2022/04/05 14:41:14;;;;;;;15.17;7.50;;;;;;;;;;5115759;28;20237;-57